sensor_id;sensor_type;location;lat;lon;timestamp;pressure;altitude;pressure_sealevel;temperature;humidity
12475;BME280;6302;42.624;23.334;2022-11-15T00:02:23;93838.56;;;5.43;100.00
12475;BME280;6302;42.624;23.334;2022-11-15T00:04:50;93842.22;;;5.39;100.00
12475;BME280;6302;42.624;23.334;2022-11-15T00:07:17;93842.94;;;5.36;100.00
12475;BME280;6302;42.624;23.334;2022-11-15T00:09:44;93842.88;;;5.32;100.00
12475;BME280;6302;42.624;23.334;2022-11-15T00:12:10;93837.47;;;5.25;100.00
12475;BME280;6302;42.624;23.334;2022-11-15T00:14:37;93833.94;;;5.17;100.00
12475;BME280;6302;42.624;23.334;2022-11-15T00:17:08;93834.19;;;5.12;100.00
12475;BME280;6302;42.624;23.334;2022-11-15T00:19:34;93830.41;;;5.10;100.00
12475;BME280;6302;42.624;23.334;2022-11-15T00:22:01;93831.84;;;5.07;100.00
12475;BME280;6302;42.624;23.334;2022-11-15T00:24:28;93821.09;;;4.97;100.00
12475;BME280;6302;42.624;23.334;2022-11-15T00:26:55;93826.34;;;4.97;100.00
12475;BME280;6302;42.624;23.334;2022-11-15T00:29:22;93815.03;;;4.93;100.00
12475;BME280;6302;42.624;23.334;2022-11-15T00:31:49;93827.75;;;4.91;100.00
12475;BME280;6302;42.624;23.334;2022-11-15T00:34:17;93816.38;;;4.87;100.00
12475;BME280;6302;42.624;23.334;2022-11-15T00:36:43;93814.78;;;4.82;100.00
12475;BME280;6302;42.624;23.334;2022-11-15T00:39:10;93815.81;;;4.78;100.00
12475;BME280;6302;42.624;23.334;2022-11-15T00:41:50;93812.34;;;4.74;100.00
12475;BME280;6302;42.624;23.334;2022-11-15T00:44:17;93808.97;;;4.73;100.00
12475;BME280;6302;42.624;23.334;2022-11-15T00:46:44;93804.41;;;4.70;100.00
12475;BME280;6302;42.624;23.334;2022-11-15T00:49:10;93807.03;;;4.70;100.00
12475;BME280;6302;42.624;23.334;2022-11-15T00:51:39;93807.78;;;4.71;100.00
12475;BME280;6302;42.624;23.334;2022-11-15T00:54:05;93816.75;;;4.70;100.00
12475;BME280;6302;42.624;23.334;2022-11-15T00:56:32;93810.31;;;4.67;100.00
12475;BME280;6302;42.624;23.334;2022-11-15T00:58:59;93800.19;;;4.66;100.00
12475;BME280;6302;42.624;23.334;2022-11-15T01:01:26;93800.19;;;4.66;100.00
12475;BME280;6302;42.624;23.334;2022-11-15T01:03:52;93797.13;;;4.64;100.00
12475;BME280;6302;42.624;23.334;2022-11-15T01:06:19;93800.44;;;4.60;100.00
12475;BME280;6302;42.624;23.334;2022-11-15T01:08:47;93800.44;;;4.60;100.00
12475;BME280;6302;42.624;23.334;2022-11-15T01:11:14;93800.44;;;4.60;100.00
12475;BME280;6302;42.624;23.334;2022-11-15T01:13:41;93797.41;;;4.58;100.00
12475;BME280;6302;42.624;23.334;2022-11-15T01:16:09;93795.19;;;4.60;100.00
12475;BME280;6302;42.624;23.334;2022-11-15T01:18:37;93802.13;;;4.69;100.00
12475;BME280;6302;42.624;23.334;2022-11-15T01:21:05;93794.31;;;4.72;100.00
12475;BME280;6302;42.624;23.334;2022-11-15T01:23:32;93798.78;;;4.72;100.00
12475;BME280;6302;42.624;23.334;2022-11-15T01:26:01;93793.53;;;4.72;100.00
12475;BME280;6302;42.624;23.334;2022-11-15T01:28:30;93785.19;;;4.66;100.00
12475;BME280;6302;42.624;23.334;2022-11-15T01:30:58;93790.75;;;4.65;100.00
12475;BME280;6302;42.624;23.334;2022-11-15T01:33:24;93787.81;;;4.66;100.00
12475;BME280;6302;42.624;23.334;2022-11-15T01:35:51;93788.91;;;4.65;100.00
12475;BME280;6302;42.624;23.334;2022-11-15T01:38:18;93790.34;;;4.63;100.00
12475;BME280;6302;42.624;23.334;2022-11-15T01:40:45;93790.34;;;4.63;100.00
12475;BME280;6302;42.624;23.334;2022-11-15T01:43:25;93795.09;;;4.57;100.00
12475;BME280;6302;42.624;23.334;2022-11-15T01:45:55;93790.63;;;4.57;100.00
12475;BME280;6302;42.624;23.334;2022-11-15T01:48:25;93794.34;;;4.56;100.00
12475;BME280;6302;42.624;23.334;2022-11-15T01:50:55;93791.63;;;4.53;100.00
12475;BME280;6302;42.624;23.334;2022-11-15T01:53:23;93787.16;;;4.53;100.00
12475;BME280;6302;42.624;23.334;2022-11-15T01:55:52;93785.63;;;4.52;100.00
12475;BME280;6302;42.624;23.334;2022-11-15T01:58:20;93787.00;;;4.46;100.00
12475;BME280;6302;42.624;23.334;2022-11-15T02:00:48;93784.44;;;4.50;100.00
12475;BME280;6302;42.624;23.334;2022-11-15T02:03:16;93783.41;;;4.54;100.00
12475;BME280;6302;42.624;23.334;2022-11-15T02:05:43;93784.59;;;4.57;100.00
12475;BME280;6302;42.624;23.334;2022-11-15T02:08:11;93789.53;;;4.58;100.00
12475;BME280;6302;42.624;23.334;2022-11-15T02:10:45;93782.75;;;4.57;100.00
12475;BME280;6302;42.624;23.334;2022-11-15T02:13:12;93782.41;;;4.59;100.00
12475;BME280;6302;42.624;23.334;2022-11-15T02:15:46;93781.66;;;4.58;100.00
12475;BME280;6302;42.624;23.334;2022-11-15T02:18:26;93781.91;;;4.53;100.00
12475;BME280;6302;42.624;23.334;2022-11-15T02:21:09;93780.78;;;4.54;100.00
12475;BME280;6302;42.624;23.334;2022-11-15T02:24:11;93781.56;;;4.55;100.00
12475;BME280;6302;42.624;23.334;2022-11-15T02:27:07;93781.75;;;4.46;100.00
12475;BME280;6302;42.624;23.334;2022-11-15T02:29:58;93779.44;;;4.45;100.00
12475;BME280;6302;42.624;23.334;2022-11-15T02:32:34;93778.69;;;4.44;100.00
12475;BME280;6302;42.624;23.334;2022-11-15T02:35:07;93778.69;;;4.44;100.00
12475;BME280;6302;42.624;23.334;2022-11-15T02:37:43;93778.69;;;4.44;100.00
12475;BME280;6302;42.624;23.334;2022-11-15T02:40:21;93771.84;;;4.40;100.00
12475;BME280;6302;42.624;23.334;2022-11-15T02:42:53;93761.28;;;4.36;100.00
12475;BME280;6302;42.624;23.334;2022-11-15T02:45:41;93779.72;;;4.40;100.00
12475;BME280;6302;42.624;23.334;2022-11-15T02:48:11;93773.38;;;4.41;100.00
12475;BME280;6302;42.624;23.334;2022-11-15T02:50:38;93777.44;;;4.38;100.00
12475;BME280;6302;42.624;23.334;2022-11-15T02:53:05;93774.16;;;4.41;100.00
12475;BME280;6302;42.624;23.334;2022-11-15T02:55:34;93777.19;;;4.43;100.00
12475;BME280;6302;42.624;23.334;2022-11-15T02:58:14;93772.69;;;4.44;100.00
12475;BME280;6302;42.624;23.334;2022-11-15T03:00:48;93769.72;;;4.45;100.00
12475;BME280;6302;42.624;23.334;2022-11-15T03:03:32;93772.75;;;4.47;100.00
12475;BME280;6302;42.624;23.334;2022-11-15T03:06:11;93770.81;;;4.44;100.00
12475;BME280;6302;42.624;23.334;2022-11-15T03:08:49;93781.75;;;4.46;100.00
12475;BME280;6302;42.624;23.334;2022-11-15T03:11:21;93775.81;;;4.49;100.00
12475;BME280;6302;42.624;23.334;2022-11-15T03:13:54;93779.69;;;4.55;100.00
12475;BME280;6302;42.624;23.334;2022-11-15T03:16:27;93779.69;;;4.55;100.00
12475;BME280;6302;42.624;23.334;2022-11-15T03:19:05;93779.69;;;4.55;100.00
12475;BME280;6302;42.624;23.334;2022-11-15T03:21:34;93770.78;;;4.60;100.00
12475;BME280;6302;42.624;23.334;2022-11-15T03:24:04;93771.06;;;4.55;100.00
12475;BME280;6302;42.624;23.334;2022-11-15T03:26:33;93764.72;;;4.56;100.00
12475;BME280;6302;42.624;23.334;2022-11-15T03:29:04;93766.22;;;4.57;100.00
12475;BME280;6302;42.624;23.334;2022-11-15T03:31:36;93768.09;;;4.56;100.00
12475;BME280;6302;42.624;23.334;2022-11-15T03:34:22;93767.66;;;4.54;100.00
12475;BME280;6302;42.624;23.334;2022-11-15T03:36:52;93760.50;;;4.51;100.00
12475;BME280;6302;42.624;23.334;2022-11-15T03:39:19;93754.81;;;4.49;100.00
12475;BME280;6302;42.624;23.334;2022-11-15T03:41:49;93750.31;;;4.50;100.00
12475;BME280;6302;42.624;23.334;2022-11-15T03:44:28;93752.53;;;4.48;100.00
12475;BME280;6302;42.624;23.334;2022-11-15T03:47:02;93738.50;;;4.40;100.00
12475;BME280;6302;42.624;23.334;2022-11-15T03:49:35;93745.53;;;4.36;100.00
12475;BME280;6302;42.624;23.334;2022-11-15T03:52:04;93738.69;;;4.32;100.00
12475;BME280;6302;42.624;23.334;2022-11-15T03:54:31;93735.22;;;4.28;100.00
12475;BME280;6302;42.624;23.334;2022-11-15T03:56:57;93725.59;;;4.16;100.00
12475;BME280;6302;42.624;23.334;2022-11-15T03:59:24;93735.66;;;4.14;100.00
12475;BME280;6302;42.624;23.334;2022-11-15T04:01:51;93737.44;;;4.10;100.00
12475;BME280;6302;42.624;23.334;2022-11-15T04:04:18;93738.19;;;4.11;100.00
12475;BME280;6302;42.624;23.334;2022-11-15T04:06:46;93733.63;;;4.08;100.00
12475;BME280;6302;42.624;23.334;2022-11-15T04:09:13;93734.75;;;4.07;100.00
12475;BME280;6302;42.624;23.334;2022-11-15T04:11:39;93731.34;;;4.06;100.00
12475;BME280;6302;42.624;23.334;2022-11-15T04:14:06;93734.31;;;4.05;100.00
12475;BME280;6302;42.624;23.334;2022-11-15T04:16:33;93736.59;;;4.06;100.00
12475;BME280;6302;42.624;23.334;2022-11-15T04:19:00;93732.88;;;4.07;100.00
12475;BME280;6302;42.624;23.334;2022-11-15T04:21:45;93730.25;;;4.07;100.00
12475;BME280;6302;42.624;23.334;2022-11-15T04:24:29;93722.81;;;4.09;100.00
12475;BME280;6302;42.624;23.334;2022-11-15T04:26:59;93717.97;;;4.11;100.00
12475;BME280;6302;42.624;23.334;2022-11-15T04:29:26;93717.22;;;4.11;100.00
12475;BME280;6302;42.624;23.334;2022-11-15T04:32:02;93720.25;;;4.13;100.00
12475;BME280;6302;42.624;23.334;2022-11-15T04:34:29;93716.19;;;4.15;100.00
12475;BME280;6302;42.624;23.334;2022-11-15T04:36:58;93720.75;;;4.18;100.00
12475;BME280;6302;42.624;23.334;2022-11-15T04:39:42;93721.19;;;4.20;100.00
12475;BME280;6302;42.624;23.334;2022-11-15T04:42:09;93721.94;;;4.21;100.00
12475;BME280;6302;42.624;23.334;2022-11-15T04:44:36;93726.16;;;4.25;100.00
12475;BME280;6302;42.624;23.334;2022-11-15T04:47:03;93728.47;;;4.27;100.00
12475;BME280;6302;42.624;23.334;2022-11-15T04:49:31;93725.91;;;4.30;100.00
12475;BME280;6302;42.624;23.334;2022-11-15T04:51:59;93738.00;;;4.35;100.00
12475;BME280;6302;42.624;23.334;2022-11-15T04:54:26;93722.94;;;4.32;100.00
12475;BME280;6302;42.624;23.334;2022-11-15T04:56:53;93724.41;;;4.29;100.00
12475;BME280;6302;42.624;23.334;2022-11-15T04:59:20;93718.38;;;4.29;100.00
12475;BME280;6302;42.624;23.334;2022-11-15T05:01:46;93725.13;;;4.30;100.00
12475;BME280;6302;42.624;23.334;2022-11-15T05:04:13;93724.41;;;4.29;100.00
12475;BME280;6302;42.624;23.334;2022-11-15T05:06:46;93721.78;;;4.29;100.00
12475;BME280;6302;42.624;23.334;2022-11-15T05:09:14;93724.41;;;4.29;100.00
12475;BME280;6302;42.624;23.334;2022-11-15T05:11:41;93728.09;;;4.28;100.00
12475;BME280;6302;42.624;23.334;2022-11-15T05:14:08;93723.31;;;4.15;100.00
12475;BME280;6302;42.624;23.334;2022-11-15T05:16:36;93727.13;;;4.17;100.00
12475;BME280;6302;42.624;23.334;2022-11-15T05:19:02;93729.81;;;4.05;100.00
12475;BME280;6302;42.624;23.334;2022-11-15T05:21:29;93727.13;;;4.02;100.00
12475;BME280;6302;42.624;23.334;2022-11-15T05:23:56;93724.50;;;4.02;100.00
12475;BME280;6302;42.624;23.334;2022-11-15T05:26:25;93735.84;;;4.06;100.00
12475;BME280;6302;42.624;23.334;2022-11-15T05:28:53;93711.31;;;3.98;100.00
12475;BME280;6302;42.624;23.334;2022-11-15T05:31:22;93722.72;;;4.06;100.00
12475;BME280;6302;42.624;23.334;2022-11-15T05:33:50;93725.44;;;4.09;100.00
12475;BME280;6302;42.624;23.334;2022-11-15T05:36:21;93728.38;;;4.08;100.00
12475;BME280;6302;42.624;23.334;2022-11-15T05:38:53;93729.16;;;4.08;100.00
12475;BME280;6302;42.624;23.334;2022-11-15T05:41:21;93726.88;;;4.07;100.00
12475;BME280;6302;42.624;23.334;2022-11-15T05:43:51;93721.13;;;4.01;100.00
12475;BME280;6302;42.624;23.334;2022-11-15T05:46:18;93725.84;;;4.11;100.00
12475;BME280;6302;42.624;23.334;2022-11-15T05:48:47;93730.06;;;4.16;100.00
12475;BME280;6302;42.624;23.334;2022-11-15T05:51:16;93733.19;;;4.21;100.00
12475;BME280;6302;42.624;23.334;2022-11-15T05:53:44;93732.44;;;4.21;100.00
12475;BME280;6302;42.624;23.334;2022-11-15T05:56:11;93731.34;;;4.22;100.00
12475;BME280;6302;42.624;23.334;2022-11-15T05:58:38;93733.25;;;4.25;100.00
12475;BME280;6302;42.624;23.334;2022-11-15T06:01:07;93726.16;;;4.25;100.00
12475;BME280;6302;42.624;23.334;2022-11-15T06:03:33;93729.66;;;4.29;100.00
12475;BME280;6302;42.624;23.334;2022-11-15T06:06:00;93734.53;;;4.15;100.00
12475;BME280;6302;42.624;23.334;2022-11-15T06:08:27;93733.09;;;4.18;100.00
12475;BME280;6302;42.624;23.334;2022-11-15T06:10:54;93733.72;;;4.11;100.00
12475;BME280;6302;42.624;23.334;2022-11-15T06:13:21;93736.19;;;4.04;100.00
12475;BME280;6302;42.624;23.334;2022-11-15T06:15:47;93743.88;;;3.97;100.00
12475;BME280;6302;42.624;23.334;2022-11-15T06:18:16;93738.81;;;4.04;100.00
12475;BME280;6302;42.624;23.334;2022-11-15T06:20:43;93748.59;;;3.76;100.00
12475;BME280;6302;42.624;23.334;2022-11-15T06:23:09;93752.50;;;3.82;100.00
12475;BME280;6302;42.624;23.334;2022-11-15T06:25:36;93749.38;;;3.92;100.00
12475;BME280;6302;42.624;23.334;2022-11-15T06:28:03;93743.53;;;3.99;100.00
12475;BME280;6302;42.624;23.334;2022-11-15T06:30:30;93740.41;;;4.09;100.00
12475;BME280;6302;42.624;23.334;2022-11-15T06:33:01;93735.06;;;4.05;100.00
12475;BME280;6302;42.624;23.334;2022-11-15T06:35:30;93735.66;;;4.14;100.00
12475;BME280;6302;42.624;23.334;2022-11-15T06:38:02;93733.81;;;4.15;100.00
12475;BME280;6302;42.624;23.334;2022-11-15T06:40:33;93727.13;;;4.17;100.00
12475;BME280;6302;42.624;23.334;2022-11-15T06:43:00;93727.97;;;4.21;100.00
12475;BME280;6302;42.624;23.334;2022-11-15T06:45:27;93729.47;;;4.22;100.00
12475;BME280;6302;42.624;23.334;2022-11-15T06:47:54;93726.75;;;4.34;100.00
12475;BME280;6302;42.624;23.334;2022-11-15T06:50:20;93733.66;;;4.42;100.00
12475;BME280;6302;42.624;23.334;2022-11-15T06:52:49;93736.53;;;4.53;100.00
12475;BME280;6302;42.624;23.334;2022-11-15T06:55:15;93729.00;;;4.51;100.00
12475;BME280;6302;42.624;23.334;2022-11-15T06:57:49;93733.91;;;4.53;100.00
12475;BME280;6302;42.624;23.334;2022-11-15T07:00:18;93732.59;;;4.63;100.00
12475;BME280;6302;42.624;23.334;2022-11-15T07:02:47;93727.63;;;4.77;100.00
12475;BME280;6302;42.624;23.334;2022-11-15T07:05:15;93731.66;;;4.71;100.00
12475;BME280;6302;42.624;23.334;2022-11-15T07:10:18;93730.16;;;4.89;100.00
12475;BME280;6302;42.624;23.334;2022-11-15T07:12:46;93727.31;;;4.97;100.00
12475;BME280;6302;42.624;23.334;2022-11-15T07:15:14;93726.75;;;5.07;100.00
12475;BME280;6302;42.624;23.334;2022-11-15T07:17:40;93721.00;;;5.21;100.00
12475;BME280;6302;42.624;23.334;2022-11-15T07:20:08;93720.13;;;5.33;100.00
12475;BME280;6302;42.624;23.334;2022-11-15T07:22:35;93713.88;;;5.41;100.00
12475;BME280;6302;42.624;23.334;2022-11-15T07:25:02;93718.66;;;5.35;100.00
12475;BME280;6302;42.624;23.334;2022-11-15T07:27:31;93725.09;;;5.38;100.00
12475;BME280;6302;42.624;23.334;2022-11-15T07:29:58;93720.72;;;5.26;100.00
12475;BME280;6302;42.624;23.334;2022-11-15T07:32:25;93720.16;;;5.36;100.00
12475;BME280;6302;42.624;23.334;2022-11-15T07:34:52;93722.31;;;5.50;100.00
12475;BME280;6302;42.624;23.334;2022-11-15T07:37:18;93720.78;;;5.49;100.00
12475;BME280;6302;42.624;23.334;2022-11-15T07:39:45;93727.75;;;5.60;100.00
12475;BME280;6302;42.624;23.334;2022-11-15T07:42:12;93731.47;;;5.59;100.00
12475;BME280;6302;42.624;23.334;2022-11-15T07:44:57;93718.38;;;5.40;100.00
12475;BME280;6302;42.624;23.334;2022-11-15T07:47:24;93715.63;;;5.33;100.00
12475;BME280;6302;42.624;23.334;2022-11-15T07:49:51;93723.22;;;5.19;100.00
12475;BME280;6302;42.624;23.334;2022-11-15T07:52:18;93727.13;;;5.06;100.00
12475;BME280;6302;42.624;23.334;2022-11-15T07:54:45;93725.03;;;5.15;100.00
12475;BME280;6302;42.624;23.334;2022-11-15T07:57:11;93727.16;;;5.28;100.00
12475;BME280;6302;42.624;23.334;2022-11-15T07:59:38;93725.00;;;5.34;100.00
12475;BME280;6302;42.624;23.334;2022-11-15T08:02:08;93722.59;;;5.45;100.00
12475;BME280;6302;42.624;23.334;2022-11-15T08:04:35;93724.16;;;5.49;100.00
12475;BME280;6302;42.624;23.334;2022-11-15T08:07:02;93721.38;;;5.61;100.00
12475;BME280;6302;42.624;23.334;2022-11-15T08:09:28;93711.38;;;5.70;100.00
12475;BME280;6302;42.624;23.334;2022-11-15T08:11:55;93710.69;;;5.73;100.00
12475;BME280;6302;42.624;23.334;2022-11-15T08:14:22;93709.28;;;5.79;100.00
12475;BME280;6302;42.624;23.334;2022-11-15T08:16:49;93712.63;;;5.76;100.00
12475;BME280;6302;42.624;23.334;2022-11-15T08:19:17;93715.47;;;5.68;100.00
12475;BME280;6302;42.624;23.334;2022-11-15T08:21:44;93712.44;;;5.66;100.00
12475;BME280;6302;42.624;23.334;2022-11-15T08:24:10;93709.88;;;5.69;100.00
12475;BME280;6302;42.624;23.334;2022-11-15T08:26:37;93718.75;;;5.61;100.00
12475;BME280;6302;42.624;23.334;2022-11-15T08:29:05;93711.34;;;5.67;100.00
12475;BME280;6302;42.624;23.334;2022-11-15T08:31:32;93715.91;;;5.70;100.00
12475;BME280;6302;42.624;23.334;2022-11-15T08:34:00;93713.88;;;5.63;100.00
12475;BME280;6302;42.624;23.334;2022-11-15T08:36:29;93711.38;;;5.70;100.00
12475;BME280;6302;42.624;23.334;2022-11-15T08:38:55;93709.09;;;5.69;100.00
12475;BME280;6302;42.624;23.334;2022-11-15T08:41:25;93716.06;;;5.80;100.00
12475;BME280;6302;42.624;23.334;2022-11-15T08:43:53;93701.69;;;5.74;100.00
12475;BME280;6302;42.624;23.334;2022-11-15T08:46:20;93700.06;;;5.66;100.00
12475;BME280;6302;42.624;23.334;2022-11-15T08:48:46;93701.91;;;5.85;100.00
12475;BME280;6302;42.624;23.334;2022-11-15T08:51:13;93690.53;;;6.04;100.00
12475;BME280;6302;42.624;23.334;2022-11-15T08:53:42;93696.47;;;6.23;100.00
12475;BME280;6302;42.624;23.334;2022-11-15T08:56:10;93692.88;;;6.35;100.00
12475;BME280;6302;42.624;23.334;2022-11-15T08:58:37;93694.91;;;6.45;100.00
12475;BME280;6302;42.624;23.334;2022-11-15T09:01:04;93695.09;;;6.59;100.00
12475;BME280;6302;42.624;23.334;2022-11-15T09:03:31;93686.56;;;6.69;100.00
12475;BME280;6302;42.624;23.334;2022-11-15T09:06:00;93682.81;;;6.70;100.00
12475;BME280;6302;42.624;23.334;2022-11-15T09:08:30;93672.75;;;6.76;100.00
12475;BME280;6302;42.624;23.334;2022-11-15T09:10:58;93681.81;;;6.82;100.00
12475;BME280;6302;42.624;23.334;2022-11-15T09:13:25;93669.25;;;6.68;100.00
12475;BME280;6302;42.624;23.334;2022-11-15T09:15:51;93671.44;;;6.63;100.00
12475;BME280;6302;42.624;23.334;2022-11-15T09:18:18;93666.34;;;6.47;100.00
12475;BME280;6302;42.624;23.334;2022-11-15T09:20:47;93661.38;;;6.42;100.00
12475;BME280;6302;42.624;23.334;2022-11-15T09:23:14;93669.09;;;6.57;100.00
12475;BME280;6302;42.624;23.334;2022-11-15T09:25:41;93656.53;;;6.44;100.00
12475;BME280;6302;42.624;23.334;2022-11-15T09:28:09;93654.22;;;6.39;100.00
12475;BME280;6302;42.624;23.334;2022-11-15T09:30:35;93655.09;;;6.50;100.00
12475;BME280;6302;42.624;23.334;2022-11-15T09:33:07;93661.91;;;6.54;100.00
12475;BME280;6302;42.624;23.334;2022-11-15T09:35:34;93646.44;;;6.49;100.00
12475;BME280;6302;42.624;23.334;2022-11-15T09:38:01;93637.25;;;6.36;100.00
12475;BME280;6302;42.624;23.334;2022-11-15T09:40:30;93644.47;;;6.43;100.00
12475;BME280;6302;42.624;23.334;2022-11-15T09:43:08;93646.44;;;6.49;100.00
12475;BME280;6302;42.624;23.334;2022-11-15T09:45:50;93644.97;;;6.52;100.00
12475;BME280;6302;42.624;23.334;2022-11-15T09:48:37;93641.31;;;6.60;100.00
12475;BME280;6302;42.624;23.334;2022-11-15T09:51:26;93630.06;;;6.63;100.00
12475;BME280;6302;42.624;23.334;2022-11-15T09:53:59;93624.31;;;6.54;100.00
12475;BME280;6302;42.624;23.334;2022-11-15T09:56:30;93630.31;;;6.54;100.00
12475;BME280;6302;42.624;23.334;2022-11-15T09:59:06;93629.75;;;6.68;100.00
12475;BME280;6302;42.624;23.334;2022-11-15T10:01:44;93624.28;;;6.84;100.00
12475;BME280;6302;42.624;23.334;2022-11-15T10:04:11;93618.03;;;6.99;100.00
12475;BME280;6302;42.624;23.334;2022-11-15T10:06:42;93621.50;;;7.06;100.00
12475;BME280;6302;42.624;23.334;2022-11-15T10:09:15;93621.56;;;7.10;100.00
12475;BME280;6302;42.624;23.334;2022-11-15T10:11:43;93609.56;;;7.16;100.00
12475;BME280;6302;42.624;23.334;2022-11-15T10:14:14;93604.06;;;7.32;100.00
12475;BME280;6302;42.624;23.334;2022-11-15T10:17:09;93593.69;;;7.49;100.00
12475;BME280;6302;42.624;23.334;2022-11-15T10:19:45;93593.44;;;7.65;100.00
12475;BME280;6302;42.624;23.334;2022-11-15T10:22:36;93590.56;;;7.87;100.00
12475;BME280;6302;42.624;23.334;2022-11-15T10:25:16;93592.09;;;7.85;100.00
12475;BME280;6302;42.624;23.334;2022-11-15T10:27:50;93587.63;;;7.96;100.00
12475;BME280;6302;42.624;23.334;2022-11-15T10:30:18;93583.78;;;7.90;100.00
12475;BME280;6302;42.624;23.334;2022-11-15T10:32:47;93588.34;;;7.93;100.00
12475;BME280;6302;42.624;23.334;2022-11-15T10:35:20;93579.31;;;7.94;100.00
12475;BME280;6302;42.624;23.334;2022-11-15T10:37:48;93578.56;;;7.94;100.00
12475;BME280;6302;42.624;23.334;2022-11-15T10:40:18;93562.78;;;8.04;100.00
12475;BME280;6302;42.624;23.334;2022-11-15T10:42:45;93554.91;;;8.15;100.00
12475;BME280;6302;42.624;23.334;2022-11-15T10:45:26;93545.88;;;8.16;100.00
12475;BME280;6302;42.624;23.334;2022-11-15T10:48:19;93551.44;;;7.97;100.00
12475;BME280;6302;42.624;23.334;2022-11-15T10:50:47;93554.50;;;8.02;100.00
12475;BME280;6302;42.624;23.334;2022-11-15T10:53:21;93548.50;;;8.16;100.00
12475;BME280;6302;42.624;23.334;2022-11-15T10:55:51;93548.59;;;8.26;100.00
12475;BME280;6302;42.624;23.334;2022-11-15T10:58:33;93525.13;;;8.18;100.00
12475;BME280;6302;42.624;23.334;2022-11-15T11:01:25;93536.16;;;8.27;100.00
12475;BME280;6302;42.624;23.334;2022-11-15T11:04:00;93536.22;;;8.41;100.00
12475;BME280;6302;42.624;23.334;2022-11-15T11:06:28;93532.47;;;8.45;100.00
12475;BME280;6302;42.624;23.334;2022-11-15T11:08:57;93524.53;;;8.45;100.00
12475;BME280;6302;42.624;23.334;2022-11-15T11:11:24;93520.81;;;8.61;100.00
12475;BME280;6302;42.624;23.334;2022-11-15T11:13:51;93512.94;;;8.82;100.00
12475;BME280;6302;42.624;23.334;2022-11-15T11:16:25;93511.06;;;8.86;100.00
12475;BME280;6302;42.624;23.334;2022-11-15T11:19:13;93507.28;;;8.87;100.00
12475;BME280;6302;42.624;23.334;2022-11-15T11:21:59;93508.44;;;8.93;100.00
12475;BME280;6302;42.624;23.334;2022-11-15T11:24:32;93507.28;;;8.94;100.00
12475;BME280;6302;42.624;23.334;2022-11-15T11:27:14;93504.28;;;8.95;100.00
12475;BME280;6302;42.624;23.334;2022-11-15T11:29:58;93490.69;;;9.11;100.00
12475;BME280;6302;42.624;23.334;2022-11-15T11:32:57;93490.69;;;9.22;100.00
12475;BME280;6302;42.624;23.334;2022-11-15T11:35:30;93478.25;;;9.29;100.00
12475;BME280;6302;42.624;23.334;2022-11-15T11:38:07;93478.63;;;9.45;100.00
12475;BME280;6302;42.624;23.334;2022-11-15T11:40:44;93475.94;;;9.59;100.00
12475;BME280;6302;42.624;23.334;2022-11-15T11:43:20;93474.44;;;9.72;100.00
12475;BME280;6302;42.624;23.334;2022-11-15T11:46:07;93470.28;;;9.64;100.00
12475;BME280;6302;42.624;23.334;2022-11-15T11:48:48;93465.72;;;9.61;100.00
12475;BME280;6302;42.624;23.334;2022-11-15T11:51:28;93461.16;;;9.76;100.00
12475;BME280;6302;42.624;23.334;2022-11-15T11:53:58;93450.19;;;9.81;100.00
12475;BME280;6302;42.624;23.334;2022-11-15T11:56:28;93462.25;;;9.93;100.00
12475;BME280;6302;42.624;23.334;2022-11-15T11:59:02;93452.06;;;9.91;100.00
12475;BME280;6302;42.624;23.334;2022-11-15T12:01:36;93454.31;;;10.00;100.00
12475;BME280;6302;42.624;23.334;2022-11-15T12:04:08;93448.66;;;9.91;100.00
12475;BME280;6302;42.624;23.334;2022-11-15T12:06:42;93440.69;;;10.05;100.00
12475;BME280;6302;42.624;23.334;2022-11-15T12:09:16;93438.41;;;10.07;100.00
12475;BME280;6302;42.624;23.334;2022-11-15T12:11:50;93431.19;;;10.18;100.00
12475;BME280;6302;42.624;23.334;2022-11-15T12:14:27;93423.97;;;10.29;100.00
12475;BME280;6302;42.624;23.334;2022-11-15T12:16:57;93424.72;;;10.29;100.00
12475;BME280;6302;42.624;23.334;2022-11-15T12:19:24;93429.63;;;10.27;100.00
12475;BME280;6302;42.624;23.334;2022-11-15T12:21:59;93423.97;;;10.25;100.00
12475;BME280;6302;42.624;23.334;2022-11-15T12:24:29;93411.81;;;10.35;100.00
12475;BME280;6302;42.624;23.334;2022-11-15T12:27:01;93413.63;;;10.45;100.00
12475;BME280;6302;42.624;23.334;2022-11-15T12:29:33;93405.66;;;10.52;100.00
12475;BME280;6302;42.624;23.334;2022-11-15T12:32:02;93403.38;;;10.54;100.00
12475;BME280;6302;42.624;23.334;2022-11-15T12:34:37;93401.81;;;10.57;100.00
12475;BME280;6302;42.624;23.334;2022-11-15T12:40:36;93394.28;;;10.55;100.00
12475;BME280;6302;42.624;23.334;2022-11-15T12:46:20;93390.28;;;10.84;100.00
12475;BME280;6302;42.624;23.334;2022-11-15T12:48:52;93388.31;;;10.95;100.00
12475;BME280;6302;42.624;23.334;2022-11-15T12:51:21;93391.31;;;10.97;100.00
12475;BME280;6302;42.624;23.334;2022-11-15T12:53:50;93387.84;;;11.07;100.00
12475;BME280;6302;42.624;23.334;2022-11-15T12:56:22;93383.38;;;10.97;100.00
12475;BME280;6302;42.624;23.334;2022-11-15T12:58:52;93381.91;;;10.89;100.00
12475;BME280;6302;42.624;23.334;2022-11-15T13:01:53;93377.44;;;10.79;100.00
12475;BME280;6302;42.624;23.334;2022-11-15T13:04:27;93371.81;;;10.74;100.00
12475;BME280;6302;42.624;23.334;2022-11-15T13:06:56;93374.78;;;10.79;100.00
12475;BME280;6302;42.624;23.334;2022-11-15T13:09:54;93377.50;;;10.72;100.00
12475;BME280;6302;42.624;23.334;2022-11-15T13:12:51;93369.56;;;10.72;100.00
12475;BME280;6302;42.624;23.334;2022-11-15T13:15:40;93375.25;;;10.71;100.00
12475;BME280;6302;42.624;23.334;2022-11-15T13:18:36;93365.03;;;10.69;100.00
12475;BME280;6302;42.624;23.334;2022-11-15T13:21:16;93366.53;;;10.70;100.00
12475;BME280;6302;42.624;23.334;2022-11-15T13:24:01;93358.59;;;10.70;100.00
12475;BME280;6302;42.624;23.334;2022-11-15T13:26:29;93352.59;;;10.59;100.00
12475;BME280;6302;42.624;23.334;2022-11-15T13:28:57;93356.50;;;10.44;100.00
12475;BME280;6302;42.624;23.334;2022-11-15T13:31:30;93351.59;;;10.42;100.00